Terminal Aerodrome Forecast
Issued by NWS Kansas City/Pleasant Hill, MO

Home | Current Version | Previous Version | Text Only | Print | Product List | Glossary On
Versions: 1 2 3 4 5 6 7 8 9 10 11 12 13 14
000
FTUS43 KEAX 042300
TAFMCI
TAF
KMCI 042331Z 0500/0524 16006KT 5SM -TSRA BKN050CB
      TEMPO 0500/0502 VRB25G35KT 3SM TSRA BKN025CB
     FM050600 17007KT P6SM VCSH BKN040
     FM051000 18012KT P6SM SCT040=

USA.gov is the U.S. government's official web portal to all federal, state and local government web resources and services.